createdAt,value
2018-12-29T00:00:37.909Z,12.13
2018-12-29T00:03:06.378Z,11.23
2018-12-29T00:05:34.833Z,11.13
2018-12-29T00:08:03.233Z,11.67
2018-12-29T00:10:31.803Z,11.63
2018-12-29T00:13:00.293Z,11.00
2018-12-29T00:15:28.731Z,11.23
2018-12-29T00:17:57.141Z,9.57
2018-12-29T00:20:25.633Z,10.83
2018-12-29T00:22:54.095Z,10.17
2018-12-29T00:25:22.970Z,9.60
2018-12-29T00:27:51.427Z,9.83
2018-12-29T00:30:19.861Z,10.50
2018-12-29T00:32:48.269Z,11.07
2018-12-29T00:35:16.727Z,9.37
2018-12-29T00:37:45.141Z,11.30
2018-12-29T00:40:13.575Z,10.90
2018-12-29T00:42:42.018Z,10.63
2018-12-29T00:45:10.403Z,10.27
2018-12-29T00:47:38.826Z,9.13
2018-12-29T00:50:07.310Z,9.57
2018-12-29T00:52:35.721Z,8.77
2018-12-29T00:55:04.279Z,9.00
2018-12-29T00:57:32.759Z,8.83
2018-12-29T01:00:01.159Z,9.67
2018-12-29T01:02:29.568Z,8.57
2018-12-29T01:04:58.002Z,9.70
2018-12-29T01:07:26.393Z,9.57
2018-12-29T01:09:54.797Z,9.03
2018-12-29T01:12:23.242Z,9.63
2018-12-29T01:14:51.698Z,9.03
2018-12-29T01:17:20.209Z,9.37
2018-12-29T01:19:48.645Z,10.17
2018-12-29T01:22:17.074Z,26.93
2018-12-29T01:24:45.441Z,11.27
2018-12-29T01:27:13.942Z,8.30
2018-12-29T01:29:42.337Z,8.33
2018-12-29T01:32:10.788Z,10.00
2018-12-29T01:34:39.249Z,9.67
2018-12-29T01:37:07.638Z,9.57
2018-12-29T01:39:36.038Z,10.03
2018-12-29T01:42:04.606Z,9.10
2018-12-29T01:44:33.037Z,10.80
2018-12-29T01:47:01.468Z,9.57
2018-12-29T01:49:29.906Z,10.63
2018-12-29T01:51:58.333Z,10.87
2018-12-29T01:54:26.765Z,10.07
2018-12-29T01:56:55.209Z,11.23
2018-12-29T01:59:23.677Z,11.03
2018-12-29T02:01:52.106Z,10.47
2018-12-29T02:04:20.549Z,11.33
2018-12-29T02:06:48.961Z,10.27
2018-12-29T02:09:17.371Z,10.40
2018-12-29T02:11:45.831Z,10.63
2018-12-29T02:14:14.254Z,10.27
2018-12-29T02:16:42.686Z,10.07
2018-12-29T02:19:11.122Z,10.00
2018-12-29T02:21:39.588Z,10.40
2018-12-29T02:24:07.977Z,10.40
2018-12-29T02:26:36.435Z,9.77
2018-12-29T02:29:04.950Z,10.37
2018-12-29T02:31:33.365Z,10.67
2018-12-29T02:34:02.061Z,9.80
2018-12-29T02:36:30.541Z,9.30
2018-12-29T02:38:58.926Z,11.70
2018-12-29T02:41:27.418Z,9.87
2018-12-29T02:43:55.840Z,9.60
2018-12-29T02:46:24.324Z,9.63
2018-12-29T02:48:52.795Z,9.57
2018-12-29T02:51:21.256Z,9.60
2018-12-29T02:53:49.667Z,9.20
2018-12-29T02:56:18.090Z,9.40
2018-12-29T02:58:46.530Z,10.17
2018-12-29T03:01:14.930Z,10.27
2018-12-29T03:03:43.429Z,10.10
2018-12-29T03:06:11.872Z,13.73
2018-12-29T03:08:40.315Z,11.43
2018-12-29T03:11:08.741Z,9.50
2018-12-29T03:13:37.204Z,9.90
2018-12-29T03:16:05.684Z,8.97
2018-12-29T03:18:34.125Z,9.13
2018-12-29T03:21:02.521Z,8.87
2018-12-29T03:23:30.984Z,8.87
2018-12-29T03:25:59.634Z,9.33
2018-12-29T03:28:28.088Z,8.70
2018-12-29T03:30:56.495Z,8.80
2018-12-29T03:33:24.965Z,9.13
2018-12-29T03:35:53.388Z,8.63
2018-12-29T03:38:21.877Z,9.70
2018-12-29T03:40:50.382Z,10.17
2018-12-29T03:43:18.773Z,10.33
2018-12-29T03:45:49.318Z,11.20
2018-12-29T03:48:17.330Z,11.70
2018-12-29T03:50:45.741Z,12.73
2018-12-29T03:53:14.228Z,10.97
2018-12-29T03:55:42.717Z,10.30
2018-12-29T03:58:11.162Z,10.70
2018-12-29T04:00:39.576Z,10.37
2018-12-29T04:03:08.015Z,10.43
2018-12-29T04:05:36.452Z,10.67
2018-12-29T04:08:04.875Z,11.90
2018-12-29T04:10:33.324Z,11.33
2018-12-29T04:13:01.749Z,10.87
2018-12-29T04:15:30.215Z,10.00
2018-12-29T04:17:58.681Z,11.13
2018-12-29T04:20:27.108Z,9.50
2018-12-29T04:22:55.525Z,10.60
2018-12-29T04:25:24.355Z,9.00
2018-12-29T04:27:52.851Z,8.80
2018-12-29T04:30:21.313Z,9.57
2018-12-29T04:32:49.810Z,8.40
2018-12-29T04:35:18.317Z,8.77
2018-12-29T04:37:46.791Z,8.87
2018-12-29T04:40:15.246Z,8.23
2018-12-29T04:42:43.634Z,8.60
2018-12-29T04:45:12.042Z,7.73
2018-12-29T04:47:40.477Z,7.87
2018-12-29T04:50:08.883Z,7.53
2018-12-29T04:52:37.268Z,6.43
2018-12-29T04:55:05.917Z,7.77
2018-12-29T04:57:34.398Z,6.97
2018-12-29T05:00:02.862Z,7.03
2018-12-29T05:02:31.297Z,6.27
2018-12-29T05:04:59.689Z,4.63
2018-12-29T05:07:28.133Z,5.40
2018-12-29T05:09:56.582Z,5.87
2018-12-29T05:12:25.007Z,6.87
2018-12-29T05:14:53.459Z,6.57
2018-12-29T05:17:21.916Z,6.53
2018-12-29T05:19:50.312Z,6.87
2018-12-29T05:22:18.703Z,5.80
2018-12-29T05:24:47.134Z,6.33
2018-12-29T05:27:15.558Z,6.10
2018-12-29T05:29:44.084Z,6.37
2018-12-29T05:32:12.593Z,6.63
2018-12-29T05:34:41.006Z,6.63
2018-12-29T05:37:09.429Z,5.77
2018-12-29T05:39:37.893Z,6.17
2018-12-29T05:42:06.327Z,6.90
2018-12-29T05:44:34.764Z,7.10
2018-12-29T05:47:03.322Z,7.03
2018-12-29T05:49:31.753Z,6.60
2018-12-29T05:52:00.220Z,7.50
2018-12-29T05:54:28.717Z,6.97
2018-12-29T05:56:57.274Z,7.30
2018-12-29T05:59:25.742Z,8.57
2018-12-29T06:01:54.220Z,9.10
2018-12-29T06:04:22.733Z,8.13
2018-12-29T06:06:51.183Z,8.30
2018-12-29T06:09:19.679Z,8.70
2018-12-29T06:11:48.097Z,8.77
2018-12-29T06:14:16.501Z,8.53
2018-12-29T06:16:45.035Z,7.90
2018-12-29T06:19:13.429Z,8.70
2018-12-29T06:21:41.837Z,8.27
2018-12-29T06:24:10.619Z,7.67
2018-12-29T06:26:39.071Z,7.63
2018-12-29T06:29:07.507Z,5.93
2018-12-29T06:31:35.958Z,8.10
2018-12-29T06:34:04.380Z,7.20
2018-12-29T06:36:32.812Z,9.60
2018-12-29T06:39:01.243Z,6.40
2018-12-29T06:41:29.661Z,6.60
2018-12-29T06:43:58.070Z,6.17
2018-12-29T06:46:26.521Z,6.43
2018-12-29T06:48:54.930Z,6.70
2018-12-29T06:51:23.350Z,6.07
2018-12-29T06:53:51.789Z,6.47
2018-12-29T06:56:20.347Z,6.97
2018-12-29T06:58:48.775Z,7.27
2018-12-29T07:01:17.238Z,6.83
2018-12-29T07:03:46.745Z,5.93
2018-12-29T07:06:15.345Z,6.00
2018-12-29T07:08:43.870Z,5.63
2018-12-29T07:11:12.315Z,6.00
2018-12-29T07:13:40.770Z,5.13
2018-12-29T07:16:09.265Z,5.53
2018-12-29T07:18:37.715Z,6.47
2018-12-29T07:21:06.114Z,6.20
2018-12-29T07:23:34.576Z,5.13
2018-12-29T07:26:02.985Z,5.90
2018-12-29T07:28:32.992Z,6.47
2018-12-29T07:31:01.475Z,5.63
2018-12-29T07:33:29.993Z,4.40
2018-12-29T07:35:58.398Z,6.07
2018-12-29T07:38:26.811Z,4.73
2018-12-29T07:40:55.240Z,5.67
2018-12-29T07:43:23.731Z,5.30
2018-12-29T07:45:52.173Z,5.13
2018-12-29T07:48:20.635Z,5.93
2018-12-29T07:50:49.132Z,6.70
2018-12-29T07:53:17.573Z,7.10
2018-12-29T07:55:45.984Z,6.50
2018-12-29T07:58:14.437Z,8.30
2018-12-29T08:00:42.978Z,5.30
2018-12-29T08:03:11.392Z,5.97
2018-12-29T08:05:39.835Z,5.60
2018-12-29T08:08:08.511Z,5.40
2018-12-29T08:10:36.973Z,5.43
2018-12-29T08:13:05.393Z,5.23
2018-12-29T08:15:33.961Z,5.90
2018-12-29T08:18:02.342Z,6.63
2018-12-29T08:20:30.730Z,6.27
2018-12-29T08:22:59.161Z,6.60
2018-12-29T08:25:27.549Z,6.70
2018-12-29T08:27:55.985Z,7.07
2018-12-29T08:30:24.450Z,6.97
2018-12-29T08:32:52.917Z,7.10
2018-12-29T08:35:21.323Z,6.70
2018-12-29T08:37:49.819Z,7.10
2018-12-29T08:40:18.292Z,8.37
2018-12-29T08:42:46.681Z,8.13
2018-12-29T08:45:15.233Z,9.40
2018-12-29T08:47:43.712Z,8.17
2018-12-29T08:50:13.259Z,9.23
2018-12-29T08:52:41.924Z,7.30
2018-12-29T08:55:10.322Z,8.10
2018-12-29T08:57:38.709Z,7.23
2018-12-29T09:00:08.198Z,8.37
2018-12-29T09:02:36.611Z,8.43
2018-12-29T09:05:05.219Z,8.63
2018-12-29T09:07:33.665Z,8.43
2018-12-29T09:10:02.102Z,8.00
2018-12-29T09:12:30.577Z,8.10
2018-12-29T09:14:59.067Z,8.23
2018-12-29T09:17:27.558Z,10.00
2018-12-29T09:19:56.048Z,9.60
2018-12-29T09:22:24.534Z,8.07
2018-12-29T09:24:52.945Z,8.60
2018-12-29T09:27:21.384Z,8.57
2018-12-29T09:29:49.860Z,9.37
2018-12-29T09:32:18.273Z,8.77
2018-12-29T09:34:46.714Z,8.50
2018-12-29T09:37:15.130Z,8.77
2018-12-29T09:39:43.522Z,8.93
2018-12-29T09:42:12.016Z,9.40
2018-12-29T09:44:40.460Z,9.43
2018-12-29T09:47:08.853Z,9.20
2018-12-29T09:49:37.331Z,10.57
2018-12-29T09:52:05.759Z,10.30
2018-12-29T09:54:34.188Z,11.13
2018-12-29T09:57:02.602Z,11.00
2018-12-29T09:59:31.090Z,11.60
2018-12-29T10:02:00.306Z,10.77
2018-12-29T10:04:28.735Z,11.20
2018-12-29T10:06:57.272Z,13.00
2018-12-29T10:09:25.689Z,11.67
2018-12-29T10:11:54.159Z,10.73
2018-12-29T10:14:22.613Z,11.53
2018-12-29T10:16:51.007Z,11.37
2018-12-29T10:19:19.455Z,11.23
2018-12-29T10:21:47.916Z,12.20
2018-12-29T10:24:16.398Z,11.07
2018-12-29T10:26:44.887Z,10.90
2018-12-29T10:29:13.317Z,13.77
2018-12-29T10:31:42.099Z,11.40
2018-12-29T10:34:10.503Z,12.17
2018-12-29T10:36:39.043Z,11.77
2018-12-29T10:39:07.441Z,10.77
2018-12-29T10:41:36.337Z,11.53
2018-12-29T10:44:04.813Z,10.53
2018-12-29T10:46:33.653Z,10.40
2018-12-29T10:49:02.161Z,11.33
2018-12-29T10:51:30.639Z,10.97
2018-12-29T10:53:59.082Z,11.47
2018-12-29T10:56:27.491Z,11.77
2018-12-29T10:58:55.970Z,11.17
2018-12-29T11:01:24.362Z,10.83
2018-12-29T11:03:52.785Z,11.23
2018-12-29T11:06:21.350Z,11.43
2018-12-29T11:08:49.774Z,10.40
2018-12-29T11:11:18.189Z,11.83
2018-12-29T11:13:46.699Z,10.53
2018-12-29T11:16:16.251Z,11.83
2018-12-29T11:18:44.661Z,12.63
2018-12-29T11:21:13.200Z,10.87
2018-12-29T11:23:41.651Z,12.87
2018-12-29T11:26:10.038Z,12.33
2018-12-29T11:28:38.512Z,12.77
2018-12-29T11:31:07.013Z,14.30
2018-12-29T11:33:35.445Z,14.13
2018-12-29T11:36:03.949Z,12.63
2018-12-29T11:38:32.397Z,13.07
2018-12-29T11:41:00.822Z,14.97
2018-12-29T11:43:29.239Z,13.87
2018-12-29T11:45:57.675Z,13.60
2018-12-29T11:48:26.127Z,14.00
2018-12-29T11:50:54.625Z,15.03
2018-12-29T11:53:23.131Z,13.33
2018-12-29T11:55:51.526Z,13.50
2018-12-29T11:58:19.994Z,14.00
2018-12-29T12:00:48.410Z,14.83
2018-12-29T12:03:16.839Z,14.90
2018-12-29T12:05:45.343Z,14.23
2018-12-29T12:08:13.756Z,13.70
2018-12-29T12:10:42.180Z,13.37
2018-12-29T12:13:10.686Z,12.70
2018-12-29T12:15:39.146Z,12.53
2018-12-29T12:18:07.589Z,12.43
2018-12-29T12:20:36.058Z,13.00
2018-12-29T12:23:04.580Z,13.50
2018-12-29T12:25:33.010Z,13.80
2018-12-29T12:28:01.771Z,14.30
2018-12-29T12:30:30.252Z,13.50
2018-12-29T12:32:58.731Z,14.03
2018-12-29T12:35:27.398Z,12.80
2018-12-29T12:37:56.136Z,12.60
2018-12-29T12:40:24.677Z,12.97
2018-12-29T12:42:53.476Z,15.27
2018-12-29T12:45:22.114Z,13.13
2018-12-29T12:47:50.581Z,13.53
2018-12-29T12:50:19.114Z,14.03
2018-12-29T12:52:47.741Z,13.63
2018-12-29T12:55:16.161Z,12.97
2018-12-29T12:57:44.633Z,12.70
2018-12-29T13:00:13.504Z,12.27
2018-12-29T13:02:41.897Z,11.30
2018-12-29T13:05:10.417Z,11.93
2018-12-29T13:07:38.951Z,11.23
2018-12-29T13:10:10.921Z,14.07
2018-12-29T13:12:39.404Z,12.87
2018-12-29T13:15:07.899Z,12.50
2018-12-29T13:17:39.363Z,13.20
2018-12-29T13:20:07.975Z,12.30
2018-12-29T13:22:36.418Z,12.20
2018-12-29T13:25:04.934Z,11.33
2018-12-29T13:27:33.381Z,12.07
2018-12-29T13:30:01.828Z,12.37
2018-12-29T13:32:30.323Z,13.67
2018-12-29T13:34:58.849Z,14.00
2018-12-29T13:37:27.309Z,12.57
2018-12-29T13:39:56.666Z,13.47
2018-12-29T13:42:25.392Z,13.63
2018-12-29T13:44:53.835Z,14.10
2018-12-29T13:47:22.302Z,12.90
2018-12-29T13:49:50.865Z,13.83
2018-12-29T13:52:19.297Z,13.63
2018-12-29T13:54:47.733Z,13.90
2018-12-29T13:57:16.228Z,14.70
2018-12-29T13:59:44.886Z,13.27
2018-12-29T14:02:13.434Z,12.77
2018-12-29T14:04:42.092Z,12.00
2018-12-29T14:07:10.552Z,12.20
2018-12-29T14:09:39.036Z,13.30
2018-12-29T14:12:07.514Z,13.37
2018-12-29T14:14:36.006Z,13.23
2018-12-29T14:17:04.421Z,13.63
2018-12-29T14:19:32.892Z,13.07
2018-12-29T14:22:01.309Z,13.43
2018-12-29T14:24:30.098Z,12.37
2018-12-29T14:26:58.605Z,12.47
2018-12-29T14:29:27.122Z,11.23
2018-12-29T14:31:55.556Z,11.60
2018-12-29T14:34:24.088Z,13.90
2018-12-29T14:36:52.818Z,10.63
2018-12-29T14:39:21.215Z,10.43
2018-12-29T14:41:50.633Z,10.50
2018-12-29T14:44:19.094Z,11.20
2018-12-29T14:46:47.513Z,11.77
2018-12-29T14:49:16.825Z,11.97
2018-12-29T14:51:45.317Z,11.77
2018-12-29T14:54:13.783Z,12.33
2018-12-29T14:56:42.268Z,11.70
2018-12-29T14:59:10.670Z,11.03
2018-12-29T15:01:39.353Z,11.83
2018-12-29T15:04:07.805Z,12.60
2018-12-29T15:06:36.232Z,12.10
2018-12-29T15:09:06.093Z,13.47
2018-12-29T15:11:34.549Z,13.20
2018-12-29T15:14:02.977Z,13.13
2018-12-29T15:16:31.817Z,13.47
2018-12-29T15:19:00.379Z,12.93
2018-12-29T15:21:29.164Z,15.17
2018-12-29T15:23:57.667Z,14.17
2018-12-29T15:26:26.200Z,12.60
2018-12-29T15:28:54.650Z,13.87
2018-12-29T15:31:23.169Z,13.43
2018-12-29T15:33:51.698Z,13.17
2018-12-29T15:36:20.119Z,13.30
2018-12-29T15:38:48.641Z,13.30
2018-12-29T15:41:17.157Z,12.87
2018-12-29T15:43:45.615Z,14.57
2018-12-29T15:46:14.102Z,17.13
2018-12-29T15:48:42.561Z,13.47
2018-12-29T15:51:11.062Z,11.67
2018-12-29T15:53:39.558Z,13.30
2018-12-29T15:56:08.091Z,11.50
2018-12-29T15:58:36.483Z,13.83
2018-12-29T16:01:04.931Z,14.73
2018-12-29T16:03:33.381Z,15.10
2018-12-29T16:06:01.974Z,10.93
2018-12-29T16:08:30.446Z,12.20
2018-12-29T16:10:59.199Z,13.30
2018-12-29T16:13:27.663Z,11.83
2018-12-29T16:15:56.122Z,12.47
2018-12-29T16:18:25.024Z,13.03
2018-12-29T16:20:55.335Z,12.40
2018-12-29T16:23:23.616Z,11.97
2018-12-29T16:25:52.438Z,13.87
2018-12-29T16:28:20.942Z,14.37
2018-12-29T16:30:49.412Z,13.30
2018-12-29T16:33:17.954Z,13.07
2018-12-29T16:35:46.425Z,14.00
2018-12-29T16:38:15.221Z,12.70
2018-12-29T16:40:43.665Z,12.57
2018-12-29T16:43:12.216Z,12.77
2018-12-29T16:45:40.729Z,12.87
2018-12-29T16:48:09.450Z,13.47
2018-12-29T16:50:38.053Z,12.33
2018-12-29T16:53:07.555Z,13.13
2018-12-29T16:55:36.151Z,12.87
2018-12-29T16:58:04.986Z,12.53
2018-12-29T17:00:33.478Z,13.03
2018-12-29T17:03:01.985Z,12.53
2018-12-29T17:05:30.540Z,10.43
2018-12-29T17:07:59.270Z,11.90
2018-12-29T17:10:27.747Z,10.47
2018-12-29T17:12:56.274Z,9.53
2018-12-29T17:15:24.729Z,10.13
2018-12-29T17:17:53.202Z,12.93
2018-12-29T17:20:21.614Z,9.90
2018-12-29T17:22:50.070Z,10.07
2018-12-29T17:25:18.513Z,9.90
2018-12-29T17:27:46.942Z,11.37
2018-12-29T17:30:15.461Z,8.73
2018-12-29T17:32:44.227Z,12.63
2018-12-29T17:35:12.815Z,9.63
2018-12-29T17:37:41.239Z,8.53
2018-12-29T17:40:09.947Z,8.87
2018-12-29T17:42:38.401Z,9.20
2018-12-29T17:45:07.261Z,8.13
2018-12-29T17:47:35.730Z,7.90
2018-12-29T17:50:04.849Z,7.63
2018-12-29T17:52:33.263Z,7.47
2018-12-29T17:55:02.117Z,8.03
2018-12-29T17:57:30.541Z,7.03
2018-12-29T17:59:58.953Z,10.67
2018-12-29T18:02:27.466Z,10.27
2018-12-29T18:04:55.937Z,7.00
2018-12-29T18:07:24.770Z,6.83
2018-12-29T18:09:57.211Z,7.23
2018-12-29T18:12:23.442Z,7.87
2018-12-29T18:14:52.183Z,7.00
2018-12-29T18:17:20.723Z,5.67
2018-12-29T18:19:49.227Z,5.47
2018-12-29T18:22:17.789Z,5.70
2018-12-29T18:24:46.522Z,7.23
2018-12-29T18:27:14.949Z,6.07
2018-12-29T18:29:43.455Z,6.10
2018-12-29T18:32:12.055Z,5.70
2018-12-29T18:34:40.750Z,5.77
2018-12-29T18:37:09.284Z,6.77
2018-12-29T18:39:37.801Z,6.47
2018-12-29T18:42:06.299Z,6.43
2018-12-29T18:44:34.723Z,6.80
2018-12-29T18:47:03.230Z,7.97
2018-12-29T18:49:38.509Z,6.37
2018-12-29T18:52:02.111Z,6.13
2018-12-29T18:54:30.639Z,6.73
2018-12-29T18:56:59.174Z,5.30
2018-12-29T18:59:27.706Z,5.27
2018-12-29T19:01:57.777Z,4.37
2018-12-29T19:04:26.461Z,4.53
2018-12-29T19:06:54.963Z,5.53
2018-12-29T19:09:23.375Z,6.30
2018-12-29T19:11:51.775Z,6.03
2018-12-29T19:14:20.213Z,6.10
2018-12-29T19:16:48.683Z,5.30
2018-12-29T19:19:17.080Z,5.60
2018-12-29T19:21:45.627Z,5.20
2018-12-29T19:24:14.125Z,4.33
2018-12-29T19:26:42.966Z,4.53
2018-12-29T19:29:11.417Z,3.97
2018-12-29T19:31:44.591Z,4.30
2018-12-29T19:34:10.110Z,6.50
2018-12-29T19:36:38.610Z,5.87
2018-12-29T19:39:07.349Z,5.03
2018-12-29T19:41:35.796Z,3.00
2018-12-29T19:44:04.317Z,3.50
2018-12-29T19:46:33.046Z,2.87
2018-12-29T19:49:01.544Z,4.37
2018-12-29T19:51:30.383Z,4.60
2018-12-29T19:53:58.877Z,4.60
2018-12-29T19:56:27.352Z,3.13
2018-12-29T19:58:56.899Z,3.83
2018-12-29T20:01:25.427Z,4.10
2018-12-29T20:03:54.207Z,4.10
2018-12-29T20:06:22.633Z,3.73
2018-12-29T20:08:51.173Z,2.93
2018-12-29T20:11:19.596Z,2.93
2018-12-29T20:13:47.997Z,2.10
2018-12-29T20:16:16.488Z,2.93
2018-12-29T20:18:45.085Z,2.70
2018-12-29T20:21:13.534Z,1.50
2018-12-29T20:23:42.036Z,1.07
2018-12-29T20:26:10.464Z,2.13
2018-12-29T20:28:38.851Z,1.50
2018-12-29T20:31:07.623Z,1.00
2018-12-29T20:33:36.077Z,1.03
2018-12-29T20:36:04.553Z,1.27
2018-12-29T20:38:32.985Z,1.30
2018-12-29T20:41:01.419Z,1.10
2018-12-29T20:43:29.806Z,0.80
2018-12-29T20:45:58.293Z,1.63
2018-12-29T20:48:26.686Z,1.00
2018-12-29T20:50:55.175Z,0.90
2018-12-29T20:53:23.700Z,1.30
2018-12-29T20:55:52.129Z,1.20
2018-12-29T20:58:20.817Z,1.10
2018-12-29T21:00:49.329Z,1.10
2018-12-29T21:03:17.797Z,1.10
2018-12-29T21:05:46.304Z,1.10
2018-12-29T21:08:14.929Z,1.10
2018-12-29T21:10:43.405Z,1.53
2018-12-29T21:13:11.817Z,0.93
2018-12-29T21:15:40.261Z,1.30
2018-12-29T21:18:08.683Z,1.37
2018-12-29T21:20:37.103Z,0.90
2018-12-29T21:23:05.611Z,1.40
2018-12-29T21:25:34.129Z,1.70
2018-12-29T21:28:02.649Z,2.40
2018-12-29T21:30:31.369Z,2.30
2018-12-29T21:32:59.787Z,2.40
2018-12-29T21:35:28.319Z,2.50
2018-12-29T21:37:56.891Z,2.30
2018-12-29T21:40:25.721Z,3.57
2018-12-29T21:42:54.415Z,3.33
2018-12-29T21:45:23.029Z,4.57
2018-12-29T21:47:51.561Z,4.27
2018-12-29T21:50:25.325Z,4.97
2018-12-29T21:52:50.311Z,5.13
2018-12-29T21:55:18.846Z,6.83
2018-12-29T21:57:47.381Z,6.53
2018-12-29T22:00:15.914Z,6.40
2018-12-29T22:02:44.450Z,7.37
2018-12-29T22:05:12.933Z,9.13
2018-12-29T22:07:41.626Z,7.93
2018-12-29T22:10:10.049Z,7.20
2018-12-29T22:12:38.473Z,8.90
2018-12-29T22:15:07.838Z,7.00
2018-12-29T22:17:36.397Z,7.37
2018-12-29T22:20:06.521Z,7.07
2018-12-29T22:22:35.136Z,7.37
2018-12-29T22:25:03.808Z,6.53
2018-12-29T22:27:32.271Z,6.97
2018-12-29T22:30:00.810Z,9.30
2018-12-29T22:32:29.220Z,7.33
2018-12-29T22:34:57.918Z,6.00
2018-12-29T22:37:26.548Z,5.20
2018-12-29T22:39:54.969Z,5.67
2018-12-29T22:42:23.508Z,5.23
2018-12-29T22:44:51.994Z,4.90
2018-12-29T22:47:20.484Z,4.53
2018-12-29T22:49:48.889Z,4.70
2018-12-29T22:52:17.458Z,4.90
2018-12-29T22:54:45.933Z,5.43
2018-12-29T22:57:14.359Z,5.33
2018-12-29T22:59:42.882Z,4.87
2018-12-29T23:02:11.605Z,3.67
2018-12-29T23:04:40.252Z,4.47
2018-12-29T23:07:09.058Z,4.80
2018-12-29T23:09:37.654Z,4.33
2018-12-29T23:12:06.514Z,4.77
2018-12-29T23:14:35.146Z,4.43
2018-12-29T23:17:03.834Z,3.83
2018-12-29T23:19:32.230Z,4.10
2018-12-29T23:22:00.812Z,4.80
2018-12-29T23:24:29.296Z,4.17
2018-12-29T23:26:57.822Z,4.10
2018-12-29T23:29:26.483Z,4.20
2018-12-29T23:31:54.968Z,4.40
2018-12-29T23:34:23.586Z,4.07
2018-12-29T23:36:52.106Z,3.83
2018-12-29T23:39:20.687Z,3.47
2018-12-29T23:41:49.474Z,4.43
2018-12-29T23:44:18.015Z,5.03
2018-12-29T23:46:46.498Z,5.73
2018-12-29T23:49:14.961Z,6.47
2018-12-29T23:51:43.822Z,6.53
2018-12-29T23:54:12.226Z,5.33
2018-12-29T23:56:40.944Z,5.73
2018-12-29T23:59:09.466Z,5.37
